Oaks, PA (19456)

3:57 PM EDT on August 02, 2015 (GMT -0400)
APRSWXNET | | Change Station
CLOSE
Current Station
Personal Weather Station
Location: Mont Clare, PA
Elevation: 141 ft
Nearby Weather Stations

Elev 141 ft 40.13 °N, 75.51 °W | Updated 27 minutes ago

Partly Cloudy
Partly Cloudy
87 °F
Feels Like 87 °F
N
2
Wind Variable Wind from SSW
Gusts 9.0 mph

Today
High -- | Low -- °F
--% Chance of Precip.
Yesterday
High -- | Low -- °F
Precip. -- in
6:00 AM 8:15 PM
Waning Gibbous, 92% visible
Pressure 29.92 in
Visibility 10.0 miles
Clouds Scattered Clouds 7500 ft
Mostly Cloudy 9000 ft
Heat Index 87 °F
Dew Point 60 °F
Humidity 40%
Rainfall in
Snow Depth Not available.
UV 4 out of 12
Pollen 7.30 out of 12
Air Quality Not available.
Flu Activity Not available.
METAR KPTW 021954Z AUTO 22007KT 10SM SCT075 BKN090 29/13 A2994 RMK AO2 SLP132 T02890128

More Conditions Fewer Conditions

Pressure 29.92 in
Visibility 10.0 miles
Clouds Scattered Clouds 7500 ft
Mostly Cloudy 9000 ft
Heat Index 87 °F
Dew Point 60 °F
Humidity 40%
Rainfall in
Snow Depth Not available.
UV 4 out of 12
Pollen 7.30 out of 12
Air Quality Not available.
Flu Activity Not available.
METAR KPTW 021954Z AUTO 22007KT 10SM SCT075 BKN090 29/13 A2994 RMK AO2 SLP132 T02890128

More Conditions Fewer Conditions

10-Day Weather Forecast

×

Almanac

Astronomy

Aug. 02, 2015 Rise Set
Actual Time
Civil Twilight
Nautical Twilight
Astronomical Twilight
Moon
Length of Visible Light
Length of Day
Tomorrow will be .
, % of the Moon is Illuminated

Today's Extremes

State Highs State Lows

Community

WunderPhotos

Upload Photos

1,843,345 photos uploaded!

WunderBlogs® & News

Nearby

Air Quality

  Air Quality AQ Index Pollutant
Not available.

Snow Depth

Station Depth Elevation

Earthquake Activity

City Distance Mag. Time & Date
Minimum magnitude displayed is 2.5.

Coastal Water Temperatures

Place Temperature

Stations

Nearby Weather Stations

Station Location Temp. Windchill Dew Point Humidity Wind Precip. Elev Updated Type